sensor_id;sensor_type;location;lat;lon;timestamp;pressure;altitude;pressure_sealevel;temperature;humidity
33697;BME280;20031;43.416;23.232;2022-07-29T00:02:01;100057.38;;;24.29;68.69
33697;BME280;20031;43.416;23.232;2022-07-29T00:04:26;100062.69;;;24.29;68.59
33697;BME280;20031;43.416;23.232;2022-07-29T00:06:52;100062.22;;;24.32;68.72
33697;BME280;20031;43.416;23.232;2022-07-29T00:09:17;100064.50;;;24.40;68.46
33697;BME280;20031;43.416;23.232;2022-07-29T00:11:43;100065.63;;;24.44;68.13
33697;BME280;20031;43.416;23.232;2022-07-29T00:14:09;100059.47;;;24.43;67.70
33697;BME280;20031;43.416;23.232;2022-07-29T00:16:34;100059.97;;;24.40;67.83
33697;BME280;20031;43.416;23.232;2022-07-29T00:19:00;100057.28;;;24.40;67.42
33697;BME280;20031;43.416;23.232;2022-07-29T00:21:25;100055.69;;;24.39;67.63
33697;BME280;20031;43.416;23.232;2022-07-29T00:23:51;100053.84;;;24.40;67.42
33697;BME280;20031;43.416;23.232;2022-07-29T00:26:16;100048.00;;;24.43;66.99
33697;BME280;20031;43.416;23.232;2022-07-29T00:28:42;100053.41;;;24.48;66.86
33697;BME280;20031;43.416;23.232;2022-07-29T00:31:07;100060.97;;;24.56;67.06
33697;BME280;20031;43.416;23.232;2022-07-29T00:33:33;100061.22;;;24.54;66.65
33697;BME280;20031;43.416;23.232;2022-07-29T00:35:58;100055.72;;;24.61;66.96
33697;BME280;20031;43.416;23.232;2022-07-29T00:38:24;100052.84;;;24.67;66.65
33697;BME280;20031;43.416;23.232;2022-07-29T00:40:49;100053.91;;;24.66;66.71
33697;BME280;20031;43.416;23.232;2022-07-29T00:43:16;100056.00;;;24.64;67.43
33697;BME280;20031;43.416;23.232;2022-07-29T00:45:42;100060.81;;;24.67;67.08
33697;BME280;20031;43.416;23.232;2022-07-29T00:48:08;100061.41;;;24.69;67.60
33697;BME280;20031;43.416;23.232;2022-07-29T00:50:34;100058.25;;;24.72;67.88
33697;BME280;20031;43.416;23.232;2022-07-29T00:53:00;100052.09;;;24.71;67.53
33697;BME280;20031;43.416;23.232;2022-07-29T00:55:26;100052.91;;;24.72;67.92
33697;BME280;20031;43.416;23.232;2022-07-29T00:57:52;100052.91;;;24.72;68.09
33697;BME280;20031;43.416;23.232;2022-07-29T01:00:22;100048.91;;;24.74;67.97
33697;BME280;20031;43.416;23.232;2022-07-29T01:02:48;100046.75;;;24.71;68.41
33697;BME280;20031;43.416;23.232;2022-07-29T01:05:20;100045.16;;;24.70;69.14
33697;BME280;20031;43.416;23.232;2022-07-29T01:07:49;100050.16;;;24.67;69.94
33697;BME280;20031;43.416;23.232;2022-07-29T01:10:16;100041.63;;;24.65;69.58
33697;BME280;20031;43.416;23.232;2022-07-29T01:12:44;100037.84;;;24.61;69.51
33697;BME280;20031;43.416;23.232;2022-07-29T01:15:12;100039.72;;;24.61;69.98
33697;BME280;20031;43.416;23.232;2022-07-29T01:32:12;100025.59;;;24.39;72.12
33697;BME280;20031;43.416;23.232;2022-07-29T01:37:26;100022.38;;;24.20;72.60
33697;BME280;20031;43.416;23.232;2022-07-29T01:39:55;100024.00;;;24.21;73.22
33697;BME280;20031;43.416;23.232;2022-07-29T01:42:32;100018.19;;;24.24;73.03
33697;BME280;20031;43.416;23.232;2022-07-29T01:45:04;100016.34;;;24.25;72.78
33697;BME280;20031;43.416;23.232;2022-07-29T01:47:37;100014.47;;;24.25;72.61
33697;BME280;20031;43.416;23.232;2022-07-29T01:50:07;100018.19;;;24.24;72.85
33697;BME280;20031;43.416;23.232;2022-07-29T01:52:38;100016.56;;;24.23;72.46
33697;BME280;20031;43.416;23.232;2022-07-29T01:55:10;100018.69;;;24.21;72.39
33697;BME280;20031;43.416;23.232;2022-07-29T01:57:38;100014.38;;;24.20;72.43
33697;BME280;20031;43.416;23.232;2022-07-29T02:00:06;100018.69;;;24.21;71.87
33697;BME280;20031;43.416;23.232;2022-07-29T02:02:32;100014.16;;;24.22;72.07
33697;BME280;20031;43.416;23.232;2022-07-29T02:05:01;100004.31;;;24.22;72.19
33697;BME280;20031;43.416;23.232;2022-07-29T02:07:29;99990.44;;;24.20;71.68
33697;BME280;20031;43.416;23.232;2022-07-29T02:09:58;99990.44;;;24.20;72.13
33697;BME280;20031;43.416;23.232;2022-07-29T02:12:26;99985.59;;;24.17;72.47
33697;BME280;20031;43.416;23.232;2022-07-29T02:14:54;99985.59;;;24.17;72.16
33697;BME280;20031;43.416;23.232;2022-07-29T02:17:27;99986.97;;;24.20;71.92
33697;BME280;20031;43.416;23.232;2022-07-29T02:20:00;99977.63;;;24.17;72.20
33697;BME280;20031;43.416;23.232;2022-07-29T02:22:29;99975.66;;;24.08;72.29
33697;BME280;20031;43.416;23.232;2022-07-29T02:24:56;99978.44;;;23.97;72.70
33697;BME280;20031;43.416;23.232;2022-07-29T02:27:23;99980.94;;;23.87;72.51
33697;BME280;20031;43.416;23.232;2022-07-29T02:29:50;99974.13;;;23.74;72.89
33697;BME280;20031;43.416;23.232;2022-07-29T02:32:17;99969.53;;;23.70;73.39
33697;BME280;20031;43.416;23.232;2022-07-29T02:34:43;99978.00;;;23.67;73.99
33697;BME280;20031;43.416;23.232;2022-07-29T02:37:11;99978.91;;;23.61;73.84
33697;BME280;20031;43.416;23.232;2022-07-29T02:39:38;99978.91;;;23.61;74.20
33697;BME280;20031;43.416;23.232;2022-07-29T02:42:08;99975.81;;;23.64;74.53
33697;BME280;20031;43.416;23.232;2022-07-29T02:44:35;99968.41;;;23.66;74.17
33697;BME280;20031;43.416;23.232;2022-07-29T02:47:11;99985.75;;;23.68;74.12
33697;BME280;20031;43.416;23.232;2022-07-29T02:49:45;99994.75;;;23.67;74.00
33697;BME280;20031;43.416;23.232;2022-07-29T02:55:01;99988.88;;;23.65;73.61
33697;BME280;20031;43.416;23.232;2022-07-29T02:57:47;99997.38;;;23.51;73.25
33697;BME280;20031;43.416;23.232;2022-07-29T03:00:15;100006.03;;;23.42;74.07
33697;BME280;20031;43.416;23.232;2022-07-29T03:02:44;99999.34;;;23.39;74.15
33697;BME280;20031;43.416;23.232;2022-07-29T03:05:15;100010.69;;;23.35;74.50
33697;BME280;20031;43.416;23.232;2022-07-29T03:07:47;100009.06;;;23.34;73.73
33697;BME280;20031;43.416;23.232;2022-07-29T03:10:14;100001.59;;;23.31;74.59
33697;BME280;20031;43.416;23.232;2022-07-29T03:12:41;100006.66;;;23.32;74.70
33697;BME280;20031;43.416;23.232;2022-07-29T03:15:08;100004.59;;;23.34;74.49
33697;BME280;20031;43.416;23.232;2022-07-29T03:17:34;100007.31;;;23.39;74.44
33697;BME280;20031;43.416;23.232;2022-07-29T03:20:00;100014.06;;;23.47;74.23
33697;BME280;20031;43.416;23.232;2022-07-29T03:22:26;100012.00;;;23.49;74.58
33697;BME280;20031;43.416;23.232;2022-07-29T03:24:52;100009.88;;;23.51;74.04
33697;BME280;20031;43.416;23.232;2022-07-29T03:27:18;100014.41;;;23.50;73.94
33697;BME280;20031;43.416;23.232;2022-07-29T03:29:43;100004.03;;;23.49;74.23
33697;BME280;20031;43.416;23.232;2022-07-29T03:34:36;100009.59;;;23.47;73.80
33697;BME280;20031;43.416;23.232;2022-07-29T03:37:02;100014.91;;;23.47;74.26
33697;BME280;20031;43.416;23.232;2022-07-29T03:39:32;100014.91;;;23.47;73.75
33697;BME280;20031;43.416;23.232;2022-07-29T03:41:59;100015.94;;;23.46;74.13
33697;BME280;20031;43.416;23.232;2022-07-29T03:46:54;100020.13;;;23.42;72.76
33697;BME280;20031;43.416;23.232;2022-07-29T03:49:21;100023.66;;;23.48;72.34
33697;BME280;20031;43.416;23.232;2022-07-29T03:51:47;100021.66;;;23.55;72.08
33697;BME280;20031;43.416;23.232;2022-07-29T03:54:13;100022.56;;;23.60;71.49
33697;BME280;20031;43.416;23.232;2022-07-29T03:56:42;100026.97;;;23.55;70.73
33697;BME280;20031;43.416;23.232;2022-07-29T03:59:10;100027.28;;;23.58;70.71
33697;BME280;20031;43.416;23.232;2022-07-29T04:01:36;100026.13;;;23.65;70.86
33697;BME280;20031;43.416;23.232;2022-07-29T04:04:04;100027.88;;;23.76;70.20
33697;BME280;20031;43.416;23.232;2022-07-29T04:06:40;100026.44;;;23.85;69.26
33697;BME280;20031;43.416;23.232;2022-07-29T04:09:07;100028.28;;;23.85;69.37
33697;BME280;20031;43.416;23.232;2022-07-29T04:11:33;100027.63;;;23.94;69.12
33697;BME280;20031;43.416;23.232;2022-07-29T04:13:59;100013.09;;;24.02;68.58
33697;BME280;20031;43.416;23.232;2022-07-29T04:16:24;100015.81;;;24.07;68.80
33697;BME280;20031;43.416;23.232;2022-07-29T04:18:49;100017.41;;;24.08;68.38
33697;BME280;20031;43.416;23.232;2022-07-29T04:21:15;100031.06;;;24.11;68.18
33697;BME280;20031;43.416;23.232;2022-07-29T04:23:40;100022.88;;;24.17;68.14
33697;BME280;20031;43.416;23.232;2022-07-29T04:26:06;100021.75;;;24.13;68.54
33697;BME280;20031;43.416;23.232;2022-07-29T04:28:35;100021.75;;;24.13;68.50
33697;BME280;20031;43.416;23.232;2022-07-29T04:31:00;100022.38;;;24.20;68.50
33697;BME280;20031;43.416;23.232;2022-07-29T04:33:25;100023.84;;;24.28;68.06
33697;BME280;20031;43.416;23.232;2022-07-29T04:35:51;100021.41;;;24.26;67.73
33697;BME280;20031;43.416;23.232;2022-07-29T04:38:16;100025.38;;;24.24;67.91
33697;BME280;20031;43.416;23.232;2022-07-29T04:40:42;100025.66;;;24.27;68.11
33697;BME280;20031;43.416;23.232;2022-07-29T04:43:07;100036.28;;;24.22;67.60
33697;BME280;20031;43.416;23.232;2022-07-29T04:45:33;100031.44;;;24.19;67.28
33697;BME280;20031;43.416;23.232;2022-07-29T04:47:58;100043.19;;;24.23;67.39
33697;BME280;20031;43.416;23.232;2022-07-29T04:50:24;100044.31;;;24.27;67.20
33697;BME280;20031;43.416;23.232;2022-07-29T04:52:49;100047.06;;;24.32;67.20
33697;BME280;20031;43.416;23.232;2022-07-29T04:55:15;100044.97;;;24.34;67.39
33697;BME280;20031;43.416;23.232;2022-07-29T04:57:40;100043.81;;;24.30;67.01
33697;BME280;20031;43.416;23.232;2022-07-29T05:00:06;100046.34;;;24.20;67.05
33697;BME280;20031;43.416;23.232;2022-07-29T05:02:32;100043.38;;;24.17;67.81
33697;BME280;20031;43.416;23.232;2022-07-29T05:04:57;100054.09;;;24.22;67.25
33697;BME280;20031;43.416;23.232;2022-07-29T05:07:23;100060.78;;;24.24;67.43
33697;BME280;20031;43.416;23.232;2022-07-29T05:09:48;100049.59;;;24.22;67.55
33697;BME280;20031;43.416;23.232;2022-07-29T05:12:14;100053.66;;;24.30;67.45
33697;BME280;20031;43.416;23.232;2022-07-29T05:14:39;100057.53;;;24.39;67.28
33697;BME280;20031;43.416;23.232;2022-07-29T05:17:05;100071.25;;;24.47;66.55
33697;BME280;20031;43.416;23.232;2022-07-29T05:19:30;100064.63;;;24.50;66.22
33697;BME280;20031;43.416;23.232;2022-07-29T05:21:57;100069.16;;;24.49;66.67
33697;BME280;20031;43.416;23.232;2022-07-29T05:24:22;100078.47;;;24.52;66.56
33697;BME280;20031;43.416;23.232;2022-07-29T05:26:47;100073.91;;;24.47;66.80
33697;BME280;20031;43.416;23.232;2022-07-29T05:29:13;100069.06;;;24.44;66.47
33697;BME280;20031;43.416;23.232;2022-07-29T05:31:38;100079.22;;;24.47;66.89
33697;BME280;20031;43.416;23.232;2022-07-29T05:34:04;100074.78;;;24.53;66.32
33697;BME280;20031;43.416;23.232;2022-07-29T05:36:29;100083.38;;;24.38;66.81
33697;BME280;20031;43.416;23.232;2022-07-29T05:38:55;100085.50;;;24.36;67.00
33697;BME280;20031;43.416;23.232;2022-07-29T05:41:20;100085.38;;;24.48;67.14
33697;BME280;20031;43.416;23.232;2022-07-29T05:43:46;100081.97;;;24.52;67.00
33697;BME280;20031;43.416;23.232;2022-07-29T05:46:12;100082.25;;;24.56;66.80
33697;BME280;20031;43.416;23.232;2022-07-29T05:48:39;100083.69;;;24.63;66.43
33697;BME280;20031;43.416;23.232;2022-07-29T05:51:04;100082.16;;;24.67;66.08
33697;BME280;20031;43.416;23.232;2022-07-29T05:53:30;100089.88;;;24.68;65.82
33697;BME280;20031;43.416;23.232;2022-07-29T05:55:55;100089.63;;;24.70;65.69
33697;BME280;20031;43.416;23.232;2022-07-29T05:58:21;100089.72;;;24.75;66.04
33697;BME280;20031;43.416;23.232;2022-07-29T06:00:47;100088.09;;;24.74;65.63
33697;BME280;20031;43.416;23.232;2022-07-29T06:03:12;100086.47;;;24.73;65.68
33697;BME280;20031;43.416;23.232;2022-07-29T06:05:38;100088.09;;;24.74;66.00
33697;BME280;20031;43.416;23.232;2022-07-29T06:08:04;100093.44;;;24.74;65.80
33697;BME280;20031;43.416;23.232;2022-07-29T06:10:34;100096.16;;;24.79;65.92
33697;BME280;20031;43.416;23.232;2022-07-29T06:13:00;100087.59;;;24.77;65.66
33697;BME280;20031;43.416;23.232;2022-07-29T06:15:25;100090.75;;;24.74;65.40
33697;BME280;20031;43.416;23.232;2022-07-29T06:17:51;100082.47;;;24.70;65.66
33697;BME280;20031;43.416;23.232;2022-07-29T06:20:17;100092.06;;;24.71;65.86
33697;BME280;20031;43.416;23.232;2022-07-29T06:22:43;100091.50;;;24.69;65.51
33697;BME280;20031;43.416;23.232;2022-07-29T06:25:09;100086.22;;;24.74;65.75
33697;BME280;20031;43.416;23.232;2022-07-29T06:27:34;100086.19;;;24.69;65.85
33697;BME280;20031;43.416;23.232;2022-07-29T06:30:00;100084.63;;;24.73;65.62
33697;BME280;20031;43.416;23.232;2022-07-29T06:32:27;100084.63;;;24.73;65.74
33697;BME280;20031;43.416;23.232;2022-07-29T06:34:52;100084.38;;;24.75;65.93
33697;BME280;20031;43.416;23.232;2022-07-29T06:37:18;100084.44;;;24.80;65.45
33697;BME280;20031;43.416;23.232;2022-07-29T06:39:43;100090.25;;;24.77;65.80
33697;BME280;20031;43.416;23.232;2022-07-29T06:42:08;100088.22;;;24.84;65.77
33697;BME280;20031;43.416;23.232;2022-07-29T06:44:34;100085.56;;;24.84;65.39
33697;BME280;20031;43.416;23.232;2022-07-29T06:47:00;100089.84;;;24.85;65.29
33697;BME280;20031;43.416;23.232;2022-07-29T06:49:26;100080.91;;;24.96;65.64
33697;BME280;20031;43.416;23.232;2022-07-29T06:51:53;100079.97;;;25.07;65.01
33697;BME280;20031;43.416;23.232;2022-07-29T06:54:19;100081.44;;;25.19;64.81
33697;BME280;20031;43.416;23.232;2022-07-29T06:56:45;100080.25;;;25.31;64.54
33697;BME280;20031;43.416;23.232;2022-07-29T06:59:11;100088.09;;;25.43;64.17
33697;BME280;20031;43.416;23.232;2022-07-29T07:01:39;100077.78;;;25.56;63.82
33697;BME280;20031;43.416;23.232;2022-07-29T07:04:05;100085.25;;;25.54;63.16
33697;BME280;20031;43.416;23.232;2022-07-29T07:06:31;100080.00;;;25.64;63.44
33697;BME280;20031;43.416;23.232;2022-07-29T07:08:56;100074.78;;;25.79;63.32
33697;BME280;20031;43.416;23.232;2022-07-29T07:11:22;100080.78;;;25.96;62.73
33697;BME280;20031;43.416;23.232;2022-07-29T07:13:47;100073.63;;;25.96;61.64
33697;BME280;20031;43.416;23.232;2022-07-29T07:16:13;100078.38;;;25.89;61.95
33697;BME280;20031;43.416;23.232;2022-07-29T07:18:38;100076.16;;;25.81;62.23
33697;BME280;20031;43.416;23.232;2022-07-29T07:21:04;100078.88;;;25.86;62.09
33697;BME280;20031;43.416;23.232;2022-07-29T07:23:30;100076.44;;;25.85;61.75
33697;BME280;20031;43.416;23.232;2022-07-29T07:25:56;100086.31;;;25.84;62.42
33697;BME280;20031;43.416;23.232;2022-07-29T07:28:21;100073.34;;;25.98;61.71
33697;BME280;20031;43.416;23.232;2022-07-29T07:30:47;100072.41;;;26.19;61.94
33697;BME280;20031;43.416;23.232;2022-07-29T07:33:13;100077.53;;;26.25;60.74
33697;BME280;20031;43.416;23.232;2022-07-29T07:35:38;100075.25;;;26.48;60.27
33697;BME280;20031;43.416;23.232;2022-07-29T07:38:04;100079.22;;;26.92;60.83
33697;BME280;20031;43.416;23.232;2022-07-29T07:40:31;100075.25;;;27.19;58.71
33697;BME280;20031;43.416;23.232;2022-07-29T07:42:57;100078.25;;;27.32;58.23
33697;BME280;20031;43.416;23.232;2022-07-29T07:45:22;100075.09;;;27.65;58.16
33697;BME280;20031;43.416;23.232;2022-07-29T07:47:48;100075.31;;;27.98;58.13
33697;BME280;20031;43.416;23.232;2022-07-29T07:50:14;100079.34;;;28.11;56.31
33697;BME280;20031;43.416;23.232;2022-07-29T07:52:51;100078.47;;;28.35;55.64
33697;BME280;20031;43.416;23.232;2022-07-29T07:55:18;100070.63;;;28.58;55.63
33697;BME280;20031;43.416;23.232;2022-07-29T07:57:44;100062.28;;;28.70;54.59
33697;BME280;20031;43.416;23.232;2022-07-29T08:00:12;100073.25;;;28.78;54.36
33697;BME280;20031;43.416;23.232;2022-07-29T08:02:38;100065.69;;;28.90;54.51
33697;BME280;20031;43.416;23.232;2022-07-29T08:05:05;100071.78;;;29.00;53.60
33697;BME280;20031;43.416;23.232;2022-07-29T08:07:31;100066.59;;;29.19;54.05
33697;BME280;20031;43.416;23.232;2022-07-29T08:09:56;100071.66;;;29.25;53.13
33697;BME280;20031;43.416;23.232;2022-07-29T08:12:21;100071.63;;;29.35;53.43
33697;BME280;20031;43.416;23.232;2022-07-29T08:14:47;100071.81;;;29.43;52.21
33697;BME280;20031;43.416;23.232;2022-07-29T08:17:12;100058.75;;;29.60;53.02
33697;BME280;20031;43.416;23.232;2022-07-29T08:19:38;100063.84;;;29.67;51.47
33697;BME280;20031;43.416;23.232;2022-07-29T08:22:03;100064.97;;;29.61;51.37
33697;BME280;20031;43.416;23.232;2022-07-29T08:24:29;100065.81;;;29.56;51.85
33697;BME280;20031;43.416;23.232;2022-07-29T08:27:18;100065.28;;;29.88;51.33
33697;BME280;20031;43.416;23.232;2022-07-29T08:29:43;100062.81;;;30.19;50.40
33697;BME280;20031;43.416;23.232;2022-07-29T08:32:08;100058.19;;;30.25;50.33
33697;BME280;20031;43.416;23.232;2022-07-29T08:34:34;100063.75;;;30.56;49.75
33697;BME280;20031;43.416;23.232;2022-07-29T08:36:59;100073.00;;;30.69;49.13
33697;BME280;20031;43.416;23.232;2022-07-29T08:39:25;100059.56;;;30.69;48.76
33697;BME280;20031;43.416;23.232;2022-07-29T08:41:51;100052.38;;;30.83;48.66
33697;BME280;20031;43.416;23.232;2022-07-29T08:44:18;100057.38;;;31.12;47.98
33697;BME280;20031;43.416;23.232;2022-07-29T08:46:44;100063.47;;;31.36;47.49
33697;BME280;20031;43.416;23.232;2022-07-29T08:49:09;100055.34;;;31.73;47.68
33697;BME280;20031;43.416;23.232;2022-07-29T08:51:36;100056.97;;;31.55;46.84
33697;BME280;20031;43.416;23.232;2022-07-29T08:54:04;100052.13;;;31.39;46.87
33697;BME280;20031;43.416;23.232;2022-07-29T08:56:30;100050.22;;;31.21;46.97
33697;BME280;20031;43.416;23.232;2022-07-29T08:58:57;100053.81;;;30.98;47.07
33697;BME280;20031;43.416;23.232;2022-07-29T09:01:27;100044.41;;;31.14;46.83
33697;BME280;20031;43.416;23.232;2022-07-29T09:03:55;100038.16;;;31.19;46.56
33697;BME280;20031;43.416;23.232;2022-07-29T09:06:21;100035.56;;;31.64;47.01
33697;BME280;20031;43.416;23.232;2022-07-29T09:08:48;100040.66;;;32.10;46.20
33697;BME280;20031;43.416;23.232;2022-07-29T09:11:14;100035.19;;;32.29;45.17
33697;BME280;20031;43.416;23.232;2022-07-29T09:13:39;100023.97;;;32.35;43.98
33697;BME280;20031;43.416;23.232;2022-07-29T09:16:05;100020.00;;;32.59;43.88
33697;BME280;20031;43.416;23.232;2022-07-29T09:18:36;100024.06;;;32.70;43.36
33697;BME280;20031;43.416;23.232;2022-07-29T09:21:03;100011.13;;;32.94;43.48
33697;BME280;20031;43.416;23.232;2022-07-29T09:24:17;100005.53;;;33.26;42.68
33697;BME280;20031;43.416;23.232;2022-07-29T09:26:44;100004.78;;;33.34;41.84
33697;BME280;20031;43.416;23.232;2022-07-29T09:29:15;100006.19;;;33.31;42.67
33697;BME280;20031;43.416;23.232;2022-07-29T09:31:46;100011.34;;;33.41;42.10
33697;BME280;20031;43.416;23.232;2022-07-29T09:34:16;100000.69;;;33.58;42.36
33697;BME280;20031;43.416;23.232;2022-07-29T09:36:47;100002.81;;;33.69;41.82
33697;BME280;20031;43.416;23.232;2022-07-29T09:39:15;99999.75;;;33.62;41.04
33697;BME280;20031;43.416;23.232;2022-07-29T09:41:51;99993.16;;;33.77;41.03
33697;BME280;20031;43.416;23.232;2022-07-29T09:44:21;99985.03;;;33.77;40.68
33697;BME280;20031;43.416;23.232;2022-07-29T09:47:00;99976.94;;;33.77;40.79
33697;BME280;20031;43.416;23.232;2022-07-29T09:49:36;99980.25;;;33.96;42.09
33697;BME280;20031;43.416;23.232;2022-07-29T09:52:05;99971.41;;;34.20;41.22
33697;BME280;20031;43.416;23.232;2022-07-29T09:54:31;99975.25;;;34.36;39.73
33697;BME280;20031;43.416;23.232;2022-07-29T09:57:03;99971.28;;;34.34;39.85
33697;BME280;20031;43.416;23.232;2022-07-29T09:59:29;99960.84;;;34.02;40.12
33697;BME280;20031;43.416;23.232;2022-07-29T10:01:55;99966.59;;;34.09;40.12
33697;BME280;20031;43.416;23.232;2022-07-29T10:04:21;99965.31;;;33.98;40.25
33697;BME280;20031;43.416;23.232;2022-07-29T10:07:00;99958.38;;;33.92;40.53
33697;BME280;20031;43.416;23.232;2022-07-29T10:09:26;99957.84;;;34.12;40.50
33697;BME280;20031;43.416;23.232;2022-07-29T10:12:12;99948.19;;;34.19;40.13
33697;BME280;20031;43.416;23.232;2022-07-29T10:14:41;99956.00;;;34.38;39.79
33697;BME280;20031;43.416;23.232;2022-07-29T10:17:09;99953.22;;;34.60;39.18
33697;BME280;20031;43.416;23.232;2022-07-29T10:19:36;99954.94;;;34.47;39.58
33697;BME280;20031;43.416;23.232;2022-07-29T10:22:06;99952.25;;;34.56;39.00
33697;BME280;20031;43.416;23.232;2022-07-29T10:24:32;99948.31;;;34.95;40.01
33697;BME280;20031;43.416;23.232;2022-07-29T10:27:00;99943.97;;;35.11;38.05
33697;BME280;20031;43.416;23.232;2022-07-29T10:29:28;99943.50;;;35.09;38.43
33697;BME280;20031;43.416;23.232;2022-07-29T10:34:36;99936.34;;;34.88;38.37
33697;BME280;20031;43.416;23.232;2022-07-29T10:37:21;99932.50;;;35.06;38.60
33697;BME280;20031;43.416;23.232;2022-07-29T10:43:32;99915.09;;;35.32;37.76
33697;BME280;20031;43.416;23.232;2022-07-29T10:46:01;99914.31;;;35.77;38.05
33697;BME280;20031;43.416;23.232;2022-07-29T10:48:28;99908.03;;;35.93;36.96
33697;BME280;20031;43.416;23.232;2022-07-29T10:50:59;99904.19;;;36.23;36.55
33697;BME280;20031;43.416;23.232;2022-07-29T10:56:30;99901.94;;;36.33;36.36
33697;BME280;20031;43.416;23.232;2022-07-29T11:01:47;99893.75;;;36.05;35.72
33697;BME280;20031;43.416;23.232;2022-07-29T11:04:13;99900.28;;;35.75;35.78
33697;BME280;20031;43.416;23.232;2022-07-29T11:09:27;99900.16;;;35.71;35.79
33697;BME280;20031;43.416;23.232;2022-07-29T11:11:55;99887.81;;;35.82;36.14
33697;BME280;20031;43.416;23.232;2022-07-29T11:17:16;99891.53;;;36.07;35.44
33697;BME280;20031;43.416;23.232;2022-07-29T11:19:42;99891.75;;;36.22;35.70
33697;BME280;20031;43.416;23.232;2022-07-29T11:22:08;99886.41;;;36.34;35.62
33697;BME280;20031;43.416;23.232;2022-07-29T11:24:35;99886.69;;;36.41;34.72
33697;BME280;20031;43.416;23.232;2022-07-29T11:27:10;99892.03;;;36.29;35.33
33697;BME280;20031;43.416;23.232;2022-07-29T11:29:51;99883.06;;;36.08;35.36
33697;BME280;20031;43.416;23.232;2022-07-29T11:32:17;99885.78;;;36.08;36.37
33697;BME280;20031;43.416;23.232;2022-07-29T11:34:47;99882.50;;;36.64;36.67
33697;BME280;20031;43.416;23.232;2022-07-29T11:45:21;99864.25;;;37.73;33.82
33697;BME280;20031;43.416;23.232;2022-07-29T11:47:52;99863.78;;;37.59;33.15
33697;BME280;20031;43.416;23.232;2022-07-29T11:50:35;99865.50;;;37.63;33.71
33697;BME280;20031;43.416;23.232;2022-07-29T11:53:10;99862.56;;;37.68;33.90
33697;BME280;20031;43.416;23.232;2022-07-29T11:55:37;99861.97;;;37.75;32.96
33697;BME280;20031;43.416;23.232;2022-07-29T11:58:03;99850.41;;;37.78;33.06
33697;BME280;20031;43.416;23.232;2022-07-29T12:00:40;99853.47;;;38.00;33.27
33697;BME280;20031;43.416;23.232;2022-07-29T12:03:08;99850.84;;;37.91;32.69
33697;BME280;20031;43.416;23.232;2022-07-29T12:05:35;99841.78;;;37.99;32.78
33697;BME280;20031;43.416;23.232;2022-07-29T12:08:06;99848.16;;;37.68;32.64
33697;BME280;20031;43.416;23.232;2022-07-29T12:10:33;99849.38;;;37.23;33.74
33697;BME280;20031;43.416;23.232;2022-07-29T12:12:58;99834.06;;;37.42;33.61
33697;BME280;20031;43.416;23.232;2022-07-29T12:15:24;99842.00;;;37.35;33.12
33697;BME280;20031;43.416;23.232;2022-07-29T12:17:51;99835.53;;;37.28;33.43
33697;BME280;20031;43.416;23.232;2022-07-29T12:20:28;99837.81;;;37.61;32.51
33697;BME280;20031;43.416;23.232;2022-07-29T12:22:55;99828.84;;;37.61;33.03
33697;BME280;20031;43.416;23.232;2022-07-29T12:25:23;99826.72;;;37.66;32.66
33697;BME280;20031;43.416;23.232;2022-07-29T12:28:05;99825.84;;;37.74;32.82
33697;BME280;20031;43.416;23.232;2022-07-29T12:33:15;99821.97;;;38.38;32.70
33697;BME280;20031;43.416;23.232;2022-07-29T12:35:42;99816.88;;;38.64;31.92
33697;BME280;20031;43.416;23.232;2022-07-29T12:38:10;99810.63;;;38.90;31.46
33697;BME280;20031;43.416;23.232;2022-07-29T12:40:36;99809.28;;;38.85;31.51
33697;BME280;20031;43.416;23.232;2022-07-29T12:43:11;99809.38;;;39.15;31.27
33697;BME280;20031;43.416;23.232;2022-07-29T12:45:39;99806.19;;;39.13;30.77
33697;BME280;20031;43.416;23.232;2022-07-29T12:48:05;99805.63;;;38.65;31.02
33697;BME280;20031;43.416;23.232;2022-07-29T12:50:34;99806.97;;;38.71;31.21
33697;BME280;20031;43.416;23.232;2022-07-29T12:53:11;99803.63;;;38.23;31.37
33697;BME280;20031;43.416;23.232;2022-07-29T12:55:46;99802.84;;;38.23;31.69
33697;BME280;20031;43.416;23.232;2022-07-29T12:58:25;99794.53;;;38.31;32.06
33697;BME280;20031;43.416;23.232;2022-07-29T13:01:04;99795.47;;;38.78;31.53
33697;BME280;20031;43.416;23.232;2022-07-29T13:03:43;99791.53;;;38.90;30.71
33697;BME280;20031;43.416;23.232;2022-07-29T13:06:34;99793.97;;;38.65;31.40
33697;BME280;20031;43.416;23.232;2022-07-29T13:09:15;99791.16;;;38.22;31.82
33697;BME280;20031;43.416;23.232;2022-07-29T13:11:49;99787.34;;;38.11;32.22
33697;BME280;20031;43.416;23.232;2022-07-29T13:14:32;99785.25;;;38.20;31.70
33697;BME280;20031;43.416;23.232;2022-07-29T13:19:47;99776.41;;;38.23;32.17
33697;BME280;20031;43.416;23.232;2022-07-29T13:22:23;99778.59;;;38.72;31.82
33697;BME280;20031;43.416;23.232;2022-07-29T13:24:54;99768.75;;;38.68;31.24
33697;BME280;20031;43.416;23.232;2022-07-29T13:27:25;99771.97;;;39.00;31.60
33697;BME280;20031;43.416;23.232;2022-07-29T13:29:51;99768.34;;;39.27;31.42
33697;BME280;20031;43.416;23.232;2022-07-29T13:32:19;99776.00;;;39.06;31.24
33697;BME280;20031;43.416;23.232;2022-07-29T13:34:44;99761.72;;;38.82;30.54
33697;BME280;20031;43.416;23.232;2022-07-29T13:37:10;99766.13;;;38.86;31.04
33697;BME280;20031;43.416;23.232;2022-07-29T13:39:36;99762.34;;;38.91;30.92
33697;BME280;20031;43.416;23.232;2022-07-29T13:42:03;99768.66;;;38.80;30.72
33697;BME280;20031;43.416;23.232;2022-07-29T13:44:29;99760.63;;;38.98;30.68